sensor_id;sensor_type;location;lat;lon;timestamp;P1;durP1;ratioP1;P2;durP2;ratioP2
55455;SDS011;63021;52.836;6.376;2023-09-19T00:01:32;7.93;;;2.15;;
55455;SDS011;63021;52.836;6.376;2023-09-19T00:03:58;7.05;;;1.75;;
55455;SDS011;63021;52.836;6.376;2023-09-19T00:06:29;9.18;;;1.85;;
55455;SDS011;63021;52.836;6.376;2023-09-19T00:08:56;9.27;;;2.35;;
55455;SDS011;63021;52.836;6.376;2023-09-19T00:11:24;6.47;;;2.25;;
55455;SDS011;63021;52.836;6.376;2023-09-19T00:13:51;8.20;;;1.75;;
55455;SDS011;63021;52.836;6.376;2023-09-19T00:16:16;12.60;;;1.92;;
55455;SDS011;63021;52.836;6.376;2023-09-19T00:18:44;8.07;;;1.80;;
55455;SDS011;63021;52.836;6.376;2023-09-19T00:21:09;6.60;;;1.80;;
55455;SDS011;63021;52.836;6.376;2023-09-19T00:23:35;5.40;;;1.73;;
55455;SDS011;63021;52.836;6.376;2023-09-19T00:26:00;6.45;;;1.60;;
55455;SDS011;63021;52.836;6.376;2023-09-19T00:28:26;6.78;;;1.95;;
55455;SDS011;63021;52.836;6.376;2023-09-19T00:30:52;7.28;;;1.80;;
55455;SDS011;63021;52.836;6.376;2023-09-19T00:33:20;9.90;;;1.80;;
55455;SDS011;63021;52.836;6.376;2023-09-19T00:38:15;6.30;;;2.10;;
55455;SDS011;63021;52.836;6.376;2023-09-19T00:40:45;7.22;;;2.05;;
55455;SDS011;63021;52.836;6.376;2023-09-19T00:43:13;15.02;;;2.35;;
55455;SDS011;63021;52.836;6.376;2023-09-19T00:45:42;10.18;;;2.08;;
55455;SDS011;63021;52.836;6.376;2023-09-19T00:48:09;6.30;;;2.53;;
55455;SDS011;63021;52.836;6.376;2023-09-19T00:50:35;8.50;;;2.17;;
55455;SDS011;63021;52.836;6.376;2023-09-19T00:53:01;10.32;;;3.67;;
55455;SDS011;63021;52.836;6.376;2023-09-19T00:55:33;12.68;;;1.85;;
55455;SDS011;63021;52.836;6.376;2023-09-19T00:57:59;11.07;;;2.55;;
55455;SDS011;63021;52.836;6.376;2023-09-19T01:00:25;5.82;;;1.65;;
55455;SDS011;63021;52.836;6.376;2023-09-19T01:02:51;8.18;;;1.92;;
55455;SDS011;63021;52.836;6.376;2023-09-19T01:05:17;10.95;;;2.85;;
55455;SDS011;63021;52.836;6.376;2023-09-19T01:07:43;8.00;;;2.30;;
55455;SDS011;63021;52.836;6.376;2023-09-19T01:10:14;6.50;;;2.03;;
55455;SDS011;63021;52.836;6.376;2023-09-19T01:15:17;8.07;;;2.10;;
55455;SDS011;63021;52.836;6.376;2023-09-19T01:31:45;10.73;;;3.60;;
55455;SDS011;63021;52.836;6.376;2023-09-19T01:34:14;8.85;;;1.98;;
55455;SDS011;63021;52.836;6.376;2023-09-19T01:36:39;11.07;;;3.42;;
55455;SDS011;63021;52.836;6.376;2023-09-19T01:39:10;7.95;;;1.95;;
55455;SDS011;63021;52.836;6.376;2023-09-19T01:44:06;6.80;;;2.10;;
55455;SDS011;63021;52.836;6.376;2023-09-19T01:46:39;8.48;;;2.17;;
55455;SDS011;63021;52.836;6.376;2023-09-19T01:49:15;12.73;;;2.92;;
55455;SDS011;63021;52.836;6.376;2023-09-19T01:52:11;13.15;;;2.05;;
55455;SDS011;63021;52.836;6.376;2023-09-19T01:54:55;10.00;;;2.10;;
55455;SDS011;63021;52.836;6.376;2023-09-19T01:57:28;16.25;;;2.67;;
55455;SDS011;63021;52.836;6.376;2023-09-19T02:00:07;7.78;;;2.30;;
55455;SDS011;63021;52.836;6.376;2023-09-19T02:02:39;10.00;;;2.40;;
55455;SDS011;63021;52.836;6.376;2023-09-19T02:05:10;7.63;;;1.95;;
55455;SDS011;63021;52.836;6.376;2023-09-19T02:07:37;7.95;;;2.53;;
55455;SDS011;63021;52.836;6.376;2023-09-19T02:10:08;8.88;;;2.40;;
55455;SDS011;63021;52.836;6.376;2023-09-19T02:12:35;9.48;;;2.55;;
55455;SDS011;63021;52.836;6.376;2023-09-19T02:15:00;10.77;;;2.80;;
55455;SDS011;63021;52.836;6.376;2023-09-19T02:17:26;12.65;;;2.28;;
55455;SDS011;63021;52.836;6.376;2023-09-19T02:19:53;11.43;;;2.28;;
55455;SDS011;63021;52.836;6.376;2023-09-19T02:22:19;14.15;;;3.20;;
55455;SDS011;63021;52.836;6.376;2023-09-19T02:24:45;10.30;;;2.13;;
55455;SDS011;63021;52.836;6.376;2023-09-19T02:27:13;13.30;;;3.03;;
55455;SDS011;63021;52.836;6.376;2023-09-19T02:29:40;6.38;;;2.65;;
55455;SDS011;63021;52.836;6.376;2023-09-19T02:32:06;10.10;;;2.33;;
55455;SDS011;63021;52.836;6.376;2023-09-19T02:34:32;7.90;;;1.83;;
55455;SDS011;63021;52.836;6.376;2023-09-19T02:36:57;13.00;;;2.42;;
55455;SDS011;63021;52.836;6.376;2023-09-19T02:39:23;5.40;;;2.30;;
55455;SDS011;63021;52.836;6.376;2023-09-19T02:41:48;8.43;;;2.25;;
55455;SDS011;63021;52.836;6.376;2023-09-19T02:44:14;6.78;;;2.25;;
55455;SDS011;63021;52.836;6.376;2023-09-19T02:46:40;13.25;;;2.50;;
55455;SDS011;63021;52.836;6.376;2023-09-19T02:49:05;9.25;;;2.95;;
55455;SDS011;63021;52.836;6.376;2023-09-19T02:51:31;4.60;;;1.90;;
55455;SDS011;63021;52.836;6.376;2023-09-19T02:53:58;8.43;;;1.88;;
55455;SDS011;63021;52.836;6.376;2023-09-19T02:56:24;8.00;;;2.08;;
55455;SDS011;63021;52.836;6.376;2023-09-19T02:58:50;6.70;;;2.30;;
55455;SDS011;63021;52.836;6.376;2023-09-19T03:01:16;9.77;;;2.03;;
55455;SDS011;63021;52.836;6.376;2023-09-19T03:03:43;12.88;;;2.42;;
55455;SDS011;63021;52.836;6.376;2023-09-19T03:06:10;9.18;;;2.08;;
55455;SDS011;63021;52.836;6.376;2023-09-19T03:08:38;5.97;;;2.13;;
55455;SDS011;63021;52.836;6.376;2023-09-19T03:11:05;7.05;;;2.22;;
55455;SDS011;63021;52.836;6.376;2023-09-19T03:13:34;9.00;;;3.42;;
55455;SDS011;63021;52.836;6.376;2023-09-19T03:16:01;9.85;;;2.88;;
55455;SDS011;63021;52.836;6.376;2023-09-19T03:18:30;13.00;;;3.78;;
55455;SDS011;63021;52.836;6.376;2023-09-19T03:20:57;7.05;;;3.05;;
55455;SDS011;63021;52.836;6.376;2023-09-19T03:23:25;8.50;;;2.58;;
55455;SDS011;63021;52.836;6.376;2023-09-19T03:25:51;17.58;;;3.65;;
55455;SDS011;63021;52.836;6.376;2023-09-19T03:28:20;7.15;;;2.42;;
55455;SDS011;63021;52.836;6.376;2023-09-19T03:30:46;4.95;;;2.00;;
55455;SDS011;63021;52.836;6.376;2023-09-19T03:33:22;6.78;;;2.05;;
55455;SDS011;63021;52.836;6.376;2023-09-19T03:35:51;7.38;;;2.17;;
55455;SDS011;63021;52.836;6.376;2023-09-19T03:38:18;7.40;;;2.22;;
55455;SDS011;63021;52.836;6.376;2023-09-19T03:40:44;12.07;;;2.70;;
55455;SDS011;63021;52.836;6.376;2023-09-19T03:43:09;9.70;;;2.67;;
55455;SDS011;63021;52.836;6.376;2023-09-19T03:45:35;5.18;;;2.08;;
55455;SDS011;63021;52.836;6.376;2023-09-19T03:48:00;8.50;;;2.22;;
55455;SDS011;63021;52.836;6.376;2023-09-19T03:50:26;8.52;;;3.00;;
55455;SDS011;63021;52.836;6.376;2023-09-19T03:52:55;7.70;;;2.95;;
55455;SDS011;63021;52.836;6.376;2023-09-19T03:55:22;13.48;;;3.78;;
55455;SDS011;63021;52.836;6.376;2023-09-19T03:57:50;9.88;;;3.65;;
55455;SDS011;63021;52.836;6.376;2023-09-19T04:00:18;7.53;;;2.63;;
55455;SDS011;63021;52.836;6.376;2023-09-19T04:02:47;10.73;;;3.13;;
55455;SDS011;63021;52.836;6.376;2023-09-19T04:05:13;13.98;;;3.38;;
55455;SDS011;63021;52.836;6.376;2023-09-19T04:07:38;9.10;;;3.42;;
55455;SDS011;63021;52.836;6.376;2023-09-19T04:10:07;11.77;;;3.33;;
55455;SDS011;63021;52.836;6.376;2023-09-19T04:12:34;6.88;;;2.65;;
55455;SDS011;63021;52.836;6.376;2023-09-19T04:14:59;8.25;;;2.65;;
55455;SDS011;63021;52.836;6.376;2023-09-19T04:17:25;11.85;;;2.80;;
55455;SDS011;63021;52.836;6.376;2023-09-19T04:19:50;9.00;;;3.13;;
55455;SDS011;63021;52.836;6.376;2023-09-19T04:22:19;10.90;;;3.17;;
55455;SDS011;63021;52.836;6.376;2023-09-19T04:24:45;10.63;;;2.88;;
55455;SDS011;63021;52.836;6.376;2023-09-19T04:27:10;10.02;;;2.78;;
55455;SDS011;63021;52.836;6.376;2023-09-19T04:29:37;11.65;;;2.65;;
55455;SDS011;63021;52.836;6.376;2023-09-19T04:32:03;6.88;;;2.97;;
55455;SDS011;63021;52.836;6.376;2023-09-19T04:34:30;7.25;;;2.08;;
55455;SDS011;63021;52.836;6.376;2023-09-19T04:36:56;13.02;;;3.17;;
55455;SDS011;63021;52.836;6.376;2023-09-19T04:39:25;12.63;;;2.80;;
55455;SDS011;63021;52.836;6.376;2023-09-19T04:41:51;10.85;;;2.63;;
55455;SDS011;63021;52.836;6.376;2023-09-19T04:44:16;13.30;;;2.85;;
55455;SDS011;63021;52.836;6.376;2023-09-19T04:46:43;6.82;;;2.53;;
55455;SDS011;63021;52.836;6.376;2023-09-19T04:49:08;12.93;;;3.80;;
55455;SDS011;63021;52.836;6.376;2023-09-19T04:51:37;10.05;;;2.72;;
55455;SDS011;63021;52.836;6.376;2023-09-19T04:54:03;11.18;;;3.22;;
55455;SDS011;63021;52.836;6.376;2023-09-19T04:56:29;18.50;;;3.40;;
55455;SDS011;63021;52.836;6.376;2023-09-19T04:58:55;15.98;;;4.20;;
55455;SDS011;63021;52.836;6.376;2023-09-19T05:01:24;9.95;;;2.50;;
55455;SDS011;63021;52.836;6.376;2023-09-19T05:03:50;9.93;;;3.25;;
55455;SDS011;63021;52.836;6.376;2023-09-19T05:06:21;12.80;;;2.65;;
55455;SDS011;63021;52.836;6.376;2023-09-19T05:08:50;11.07;;;3.15;;
55455;SDS011;63021;52.836;6.376;2023-09-19T05:11:21;16.88;;;4.95;;
55455;SDS011;63021;52.836;6.376;2023-09-19T05:13:47;10.00;;;2.53;;
55455;SDS011;63021;52.836;6.376;2023-09-19T05:16:15;13.48;;;3.45;;
55455;SDS011;63021;52.836;6.376;2023-09-19T05:18:47;12.75;;;3.20;;
55455;SDS011;63021;52.836;6.376;2023-09-19T05:21:15;12.60;;;2.90;;
55455;SDS011;63021;52.836;6.376;2023-09-19T05:23:40;14.80;;;3.00;;
55455;SDS011;63021;52.836;6.376;2023-09-19T05:26:07;13.10;;;3.00;;
55455;SDS011;63021;52.836;6.376;2023-09-19T05:28:32;11.77;;;2.50;;
55455;SDS011;63021;52.836;6.376;2023-09-19T05:31:02;8.85;;;2.60;;
55455;SDS011;63021;52.836;6.376;2023-09-19T05:33:27;15.35;;;2.75;;
55455;SDS011;63021;52.836;6.376;2023-09-19T05:35:54;11.25;;;2.85;;
55455;SDS011;63021;52.836;6.376;2023-09-19T05:38:21;17.48;;;3.22;;
55455;SDS011;63021;52.836;6.376;2023-09-19T05:40:47;13.25;;;2.50;;
55455;SDS011;63021;52.836;6.376;2023-09-19T05:43:13;8.75;;;2.60;;
55455;SDS011;63021;52.836;6.376;2023-09-19T05:45:40;8.20;;;2.35;;
55455;SDS011;63021;52.836;6.376;2023-09-19T05:48:09;15.70;;;3.67;;
55455;SDS011;63021;52.836;6.376;2023-09-19T05:50:41;13.27;;;3.00;;
55455;SDS011;63021;52.836;6.376;2023-09-19T05:53:06;14.20;;;2.63;;
55455;SDS011;63021;52.836;6.376;2023-09-19T05:55:32;8.52;;;2.35;;
55455;SDS011;63021;52.836;6.376;2023-09-19T05:57:58;13.45;;;2.92;;
55455;SDS011;63021;52.836;6.376;2023-09-19T06:00:24;11.77;;;3.00;;
55455;SDS011;63021;52.836;6.376;2023-09-19T06:02:56;10.05;;;2.92;;
55455;SDS011;63021;52.836;6.376;2023-09-19T06:05:23;13.40;;;2.45;;
55455;SDS011;63021;52.836;6.376;2023-09-19T06:07:49;16.33;;;2.92;;
55455;SDS011;63021;52.836;6.376;2023-09-19T06:10:15;13.85;;;4.75;;
55455;SDS011;63021;52.836;6.376;2023-09-19T06:12:42;9.80;;;3.35;;
55455;SDS011;63021;52.836;6.376;2023-09-19T06:15:11;9.95;;;2.83;;
55455;SDS011;63021;52.836;6.376;2023-09-19T06:17:50;12.65;;;3.17;;
55455;SDS011;63021;52.836;6.376;2023-09-19T06:20:20;12.57;;;2.72;;
55455;SDS011;63021;52.836;6.376;2023-09-19T06:22:47;14.10;;;2.80;;
55455;SDS011;63021;52.836;6.376;2023-09-19T06:25:13;17.88;;;3.65;;
55455;SDS011;63021;52.836;6.376;2023-09-19T06:27:47;16.50;;;2.55;;
55455;SDS011;63021;52.836;6.376;2023-09-19T06:30:14;9.60;;;2.90;;
55455;SDS011;63021;52.836;6.376;2023-09-19T06:32:40;8.18;;;2.45;;
55455;SDS011;63021;52.836;6.376;2023-09-19T06:35:10;10.20;;;2.17;;
55455;SDS011;63021;52.836;6.376;2023-09-19T06:37:42;11.48;;;2.78;;
55455;SDS011;63021;52.836;6.376;2023-09-19T06:40:09;13.85;;;2.60;;
55455;SDS011;63021;52.836;6.376;2023-09-19T06:42:42;10.32;;;2.25;;
55455;SDS011;63021;52.836;6.376;2023-09-19T06:45:11;12.35;;;2.58;;
55455;SDS011;63021;52.836;6.376;2023-09-19T06:47:50;11.35;;;3.08;;
55455;SDS011;63021;52.836;6.376;2023-09-19T06:50:20;10.60;;;2.63;;
55455;SDS011;63021;52.836;6.376;2023-09-19T06:52:49;10.68;;;2.40;;
55455;SDS011;63021;52.836;6.376;2023-09-19T06:55:17;16.50;;;3.30;;
55455;SDS011;63021;52.836;6.376;2023-09-19T06:57:46;16.38;;;3.97;;
55455;SDS011;63021;52.836;6.376;2023-09-19T07:00:15;13.68;;;3.05;;
55455;SDS011;63021;52.836;6.376;2023-09-19T07:05:32;9.43;;;2.65;;
55455;SDS011;63021;52.836;6.376;2023-09-19T07:08:01;12.40;;;2.95;;
55455;SDS011;63021;52.836;6.376;2023-09-19T07:10:27;14.35;;;2.95;;
55455;SDS011;63021;52.836;6.376;2023-09-19T07:13:03;10.18;;;2.90;;
55455;SDS011;63021;52.836;6.376;2023-09-19T07:15:29;9.85;;;2.75;;
55455;SDS011;63021;52.836;6.376;2023-09-19T07:18:04;25.08;;;3.92;;
55455;SDS011;63021;52.836;6.376;2023-09-19T07:20:31;8.93;;;2.47;;
55455;SDS011;63021;52.836;6.376;2023-09-19T07:22:59;11.85;;;2.15;;
55455;SDS011;63021;52.836;6.376;2023-09-19T07:25:25;12.68;;;3.28;;
55455;SDS011;63021;52.836;6.376;2023-09-19T07:27:51;13.55;;;3.42;;
55455;SDS011;63021;52.836;6.376;2023-09-19T07:30:17;9.73;;;3.15;;
55455;SDS011;63021;52.836;6.376;2023-09-19T07:32:45;16.50;;;3.22;;
55455;SDS011;63021;52.836;6.376;2023-09-19T07:35:10;13.77;;;3.20;;
55455;SDS011;63021;52.836;6.376;2023-09-19T07:37:37;11.38;;;3.08;;
55455;SDS011;63021;52.836;6.376;2023-09-19T07:40:02;10.43;;;2.70;;
55455;SDS011;63021;52.836;6.376;2023-09-19T07:42:35;8.68;;;2.13;;
55455;SDS011;63021;52.836;6.376;2023-09-19T07:45:04;16.05;;;2.88;;
55455;SDS011;63021;52.836;6.376;2023-09-19T07:47:30;14.05;;;2.53;;
55455;SDS011;63021;52.836;6.376;2023-09-19T07:49:57;12.95;;;3.05;;
55455;SDS011;63021;52.836;6.376;2023-09-19T07:52:24;14.60;;;2.80;;
55455;SDS011;63021;52.836;6.376;2023-09-19T07:54:49;13.15;;;2.47;;
55455;SDS011;63021;52.836;6.376;2023-09-19T07:57:15;9.27;;;2.72;;
55455;SDS011;63021;52.836;6.376;2023-09-19T07:59:41;17.00;;;3.15;;
55455;SDS011;63021;52.836;6.376;2023-09-19T08:02:08;12.35;;;2.92;;
55455;SDS011;63021;52.836;6.376;2023-09-19T08:04:40;15.05;;;2.72;;
55455;SDS011;63021;52.836;6.376;2023-09-19T08:07:07;6.47;;;2.40;;
55455;SDS011;63021;52.836;6.376;2023-09-19T08:09:33;12.13;;;3.42;;
55455;SDS011;63021;52.836;6.376;2023-09-19T08:11:59;12.73;;;3.00;;
55455;SDS011;63021;52.836;6.376;2023-09-19T08:14:30;10.40;;;2.40;;
55455;SDS011;63021;52.836;6.376;2023-09-19T08:16:58;14.98;;;3.22;;
55455;SDS011;63021;52.836;6.376;2023-09-19T08:19:25;14.63;;;3.28;;
55455;SDS011;63021;52.836;6.376;2023-09-19T08:21:56;18.27;;;3.33;;
55455;SDS011;63021;52.836;6.376;2023-09-19T08:24:26;13.75;;;2.67;;
55455;SDS011;63021;52.836;6.376;2023-09-19T08:26:53;14.43;;;2.92;;
55455;SDS011;63021;52.836;6.376;2023-09-19T08:29:19;14.45;;;3.75;;
55455;SDS011;63021;52.836;6.376;2023-09-19T08:31:45;16.73;;;3.58;;
55455;SDS011;63021;52.836;6.376;2023-09-19T08:34:12;17.52;;;3.80;;
55455;SDS011;63021;52.836;6.376;2023-09-19T08:36:38;14.63;;;3.17;;
55455;SDS011;63021;52.836;6.376;2023-09-19T08:39:06;11.48;;;3.65;;
55455;SDS011;63021;52.836;6.376;2023-09-19T08:41:31;11.50;;;3.50;;
55455;SDS011;63021;52.836;6.376;2023-09-19T08:44:00;9.63;;;2.17;;
55455;SDS011;63021;52.836;6.376;2023-09-19T08:46:30;11.68;;;2.63;;
55455;SDS011;63021;52.836;6.376;2023-09-19T08:49:01;14.43;;;3.47;;
55455;SDS011;63021;52.836;6.376;2023-09-19T08:54:06;9.20;;;2.75;;
55455;SDS011;63021;52.836;6.376;2023-09-19T08:56:32;13.00;;;4.68;;
55455;SDS011;63021;52.836;6.376;2023-09-19T08:59:05;12.63;;;3.58;;
55455;SDS011;63021;52.836;6.376;2023-09-19T09:01:34;17.75;;;3.33;;
55455;SDS011;63021;52.836;6.376;2023-09-19T09:04:01;12.43;;;3.47;;
55455;SDS011;63021;52.836;6.376;2023-09-19T09:06:27;14.50;;;3.10;;
55455;SDS011;63021;52.836;6.376;2023-09-19T09:08:54;17.08;;;3.30;;
55455;SDS011;63021;52.836;6.376;2023-09-19T09:11:20;13.43;;;3.45;;
55455;SDS011;63021;52.836;6.376;2023-09-19T09:13:46;14.32;;;3.63;;
55455;SDS011;63021;52.836;6.376;2023-09-19T09:16:15;13.20;;;4.15;;
55455;SDS011;63021;52.836;6.376;2023-09-19T09:18:44;9.82;;;2.50;;
55455;SDS011;63021;52.836;6.376;2023-09-19T09:21:10;14.38;;;2.83;;
55455;SDS011;63021;52.836;6.376;2023-09-19T09:23:36;7.95;;;2.80;;
55455;SDS011;63021;52.836;6.376;2023-09-19T09:26:02;15.88;;;3.22;;
55455;SDS011;63021;52.836;6.376;2023-09-19T09:28:28;10.48;;;3.58;;
55455;SDS011;63021;52.836;6.376;2023-09-19T09:30:57;10.95;;;2.25;;
55455;SDS011;63021;52.836;6.376;2023-09-19T09:33:33;13.55;;;2.75;;
55455;SDS011;63021;52.836;6.376;2023-09-19T09:36:00;18.88;;;3.90;;
55455;SDS011;63021;52.836;6.376;2023-09-19T09:38:28;16.58;;;3.72;;
55455;SDS011;63021;52.836;6.376;2023-09-19T09:40:57;25.95;;;4.13;;
55455;SDS011;63021;52.836;6.376;2023-09-19T09:43:38;13.10;;;3.97;;
55455;SDS011;63021;52.836;6.376;2023-09-19T09:46:15;15.35;;;2.88;;
55455;SDS011;63021;52.836;6.376;2023-09-19T09:51:39;13.52;;;3.38;;
55455;SDS011;63021;52.836;6.376;2023-09-19T09:54:14;23.20;;;3.60;;
55455;SDS011;63021;52.836;6.376;2023-09-19T09:59:17;11.57;;;3.10;;
55455;SDS011;63021;52.836;6.376;2023-09-19T10:01:53;11.93;;;4.53;;
55455;SDS011;63021;52.836;6.376;2023-09-19T10:04:28;11.63;;;2.67;;
55455;SDS011;63021;52.836;6.376;2023-09-19T10:06:56;11.80;;;2.78;;
55455;SDS011;63021;52.836;6.376;2023-09-19T10:09:22;12.50;;;3.20;;
55455;SDS011;63021;52.836;6.376;2023-09-19T10:12:01;13.98;;;4.85;;
55455;SDS011;63021;52.836;6.376;2023-09-19T10:14:30;15.82;;;3.35;;
55455;SDS011;63021;52.836;6.376;2023-09-19T10:17:04;11.68;;;3.35;;
55455;SDS011;63021;52.836;6.376;2023-09-19T10:19:37;14.45;;;3.75;;
55455;SDS011;63021;52.836;6.376;2023-09-19T10:22:22;17.70;;;3.20;;
55455;SDS011;63021;52.836;6.376;2023-09-19T10:24:50;15.85;;;3.15;;
55455;SDS011;63021;52.836;6.376;2023-09-19T10:27:21;14.25;;;3.55;;
55455;SDS011;63021;52.836;6.376;2023-09-19T10:29:51;13.00;;;2.80;;
55455;SDS011;63021;52.836;6.376;2023-09-19T10:32:22;16.17;;;3.35;;
55455;SDS011;63021;52.836;6.376;2023-09-19T10:34:48;16.52;;;2.90;;
55455;SDS011;63021;52.836;6.376;2023-09-19T10:37:15;13.35;;;3.97;;
55455;SDS011;63021;52.836;6.376;2023-09-19T10:39:44;15.13;;;3.20;;
55455;SDS011;63021;52.836;6.376;2023-09-19T10:42:12;13.30;;;3.10;;
55455;SDS011;63021;52.836;6.376;2023-09-19T10:44:42;10.07;;;2.72;;
55455;SDS011;63021;52.836;6.376;2023-09-19T10:47:12;15.65;;;2.85;;
55455;SDS011;63021;52.836;6.376;2023-09-19T10:49:43;9.18;;;2.80;;
55455;SDS011;63021;52.836;6.376;2023-09-19T10:52:11;12.73;;;2.95;;
55455;SDS011;63021;52.836;6.376;2023-09-19T10:54:46;12.77;;;2.83;;
55455;SDS011;63021;52.836;6.376;2023-09-19T10:57:23;16.13;;;3.78;;
55455;SDS011;63021;52.836;6.376;2023-09-19T11:05:38;14.57;;;3.05;;
55455;SDS011;63021;52.836;6.376;2023-09-19T11:08:05;7.88;;;2.42;;
55455;SDS011;63021;52.836;6.376;2023-09-19T11:10:51;9.48;;;2.75;;
55455;SDS011;63021;52.836;6.376;2023-09-19T11:13:29;14.85;;;3.72;;
55455;SDS011;63021;52.836;6.376;2023-09-19T11:16:03;16.25;;;2.75;;
55455;SDS011;63021;52.836;6.376;2023-09-19T11:26:49;15.07;;;3.03;;
55455;SDS011;63021;52.836;6.376;2023-09-19T11:29:33;12.73;;;3.25;;
55455;SDS011;63021;52.836;6.376;2023-09-19T11:32:01;11.93;;;3.30;;
55455;SDS011;63021;52.836;6.376;2023-09-19T11:39:39;12.52;;;2.60;;
55455;SDS011;63021;52.836;6.376;2023-09-19T11:48:23;14.30;;;3.25;;
55455;SDS011;63021;52.836;6.376;2023-09-19T11:50:52;12.43;;;3.00;;
55455;SDS011;63021;52.836;6.376;2023-09-19T11:53:18;17.17;;;3.85;;
55455;SDS011;63021;52.836;6.376;2023-09-19T11:55:45;14.50;;;4.13;;
55455;SDS011;63021;52.836;6.376;2023-09-19T11:58:11;9.70;;;3.15;;
55455;SDS011;63021;52.836;6.376;2023-09-19T12:00:43;10.43;;;3.00;;
55455;SDS011;63021;52.836;6.376;2023-09-19T12:03:11;10.90;;;3.35;;
55455;SDS011;63021;52.836;6.376;2023-09-19T12:05:39;10.18;;;2.58;;
55455;SDS011;63021;52.836;6.376;2023-09-19T12:08:08;11.45;;;2.35;;
55455;SDS011;63021;52.836;6.376;2023-09-19T12:10:44;13.65;;;2.90;;
55455;SDS011;63021;52.836;6.376;2023-09-19T12:13:15;10.13;;;2.10;;
55455;SDS011;63021;52.836;6.376;2023-09-19T12:15:41;9.45;;;2.25;;
55455;SDS011;63021;52.836;6.376;2023-09-19T12:18:10;12.02;;;2.47;;
55455;SDS011;63021;52.836;6.376;2023-09-19T12:20:50;10.63;;;2.40;;
55455;SDS011;63021;52.836;6.376;2023-09-19T12:23:17;9.00;;;2.75;;
55455;SDS011;63021;52.836;6.376;2023-09-19T12:25:43;5.47;;;2.10;;
55455;SDS011;63021;52.836;6.376;2023-09-19T12:28:12;9.48;;;2.60;;
55455;SDS011;63021;52.836;6.376;2023-09-19T12:30:38;6.95;;;2.25;;
55455;SDS011;63021;52.836;6.376;2023-09-19T12:33:15;8.90;;;1.98;;
55455;SDS011;63021;52.836;6.376;2023-09-19T12:35:45;11.60;;;2.17;;
55455;SDS011;63021;52.836;6.376;2023-09-19T12:38:11;10.43;;;3.15;;
55455;SDS011;63021;52.836;6.376;2023-09-19T12:40:51;9.77;;;2.05;;
55455;SDS011;63021;52.836;6.376;2023-09-19T12:43:20;10.57;;;2.15;;
55455;SDS011;63021;52.836;6.376;2023-09-19T12:45:49;9.70;;;1.70;;
55455;SDS011;63021;52.836;6.376;2023-09-19T12:53:44;11.13;;;2.53;;
55455;SDS011;63021;52.836;6.376;2023-09-19T12:56:14;10.13;;;2.37;;
55455;SDS011;63021;52.836;6.376;2023-09-19T12:58:53;11.52;;;2.10;;
55455;SDS011;63021;52.836;6.376;2023-09-19T13:01:19;11.38;;;2.92;;
55455;SDS011;63021;52.836;6.376;2023-09-19T13:06:53;7.18;;;2.33;;
55455;SDS011;63021;52.836;6.376;2023-09-19T13:09:20;5.95;;;1.40;;
55455;SDS011;63021;52.836;6.376;2023-09-19T13:11:49;11.90;;;2.30;;
55455;SDS011;63021;52.836;6.376;2023-09-19T13:16:54;9.80;;;2.42;;
55455;SDS011;63021;52.836;6.376;2023-09-19T13:19:36;12.90;;;3.85;;
55455;SDS011;63021;52.836;6.376;2023-09-19T13:25:20;8.57;;;2.45;;
55455;SDS011;63021;52.836;6.376;2023-09-19T13:27:51;7.93;;;1.80;;
55455;SDS011;63021;52.836;6.376;2023-09-19T13:30:19;10.35;;;1.65;;
55455;SDS011;63021;52.836;6.376;2023-09-19T13:32:46;7.75;;;1.95;;
55455;SDS011;63021;52.836;6.376;2023-09-19T13:35:15;17.80;;;2.92;;
55455;SDS011;63021;52.836;6.376;2023-09-19T13:37:41;7.18;;;2.47;;
55455;SDS011;63021;52.836;6.376;2023-09-19T13:40:08;9.23;;;1.73;;
55455;SDS011;63021;52.836;6.376;2023-09-19T13:42:35;4.78;;;1.38;;
55455;SDS011;63021;52.836;6.376;2023-09-19T13:45:02;8.27;;;2.30;;
55455;SDS011;63021;52.836;6.376;2023-09-19T13:47:33;4.55;;;1.33;;
55455;SDS011;63021;52.836;6.376;2023-09-19T13:49:59;7.80;;;2.55;;
55455;SDS011;63021;52.836;6.376;2023-09-19T13:52:26;11.52;;;1.98;;
55455;SDS011;63021;52.836;6.376;2023-09-19T13:54:55;7.25;;;1.30;;
55455;SDS011;63021;52.836;6.376;2023-09-19T13:57:25;12.32;;;1.73;;
55455;SDS011;63021;52.836;6.376;2023-09-19T13:59:54;6.85;;;1.30;;
55455;SDS011;63021;52.836;6.376;2023-09-19T14:02:25;4.20;;;1.27;;
55455;SDS011;63021;52.836;6.376;2023-09-19T14:05:04;3.65;;;1.60;;
55455;SDS011;63021;52.836;6.376;2023-09-19T14:07:30;6.03;;;1.60;;
55455;SDS011;63021;52.836;6.376;2023-09-19T14:09:55;12.23;;;3.05;;
55455;SDS011;63021;52.836;6.376;2023-09-19T14:12:21;7.65;;;1.90;;
55455;SDS011;63021;52.836;6.376;2023-09-19T14:14:48;6.47;;;1.95;;
55455;SDS011;63021;52.836;6.376;2023-09-19T14:17:16;6.10;;;2.03;;
55455;SDS011;63021;52.836;6.376;2023-09-19T14:19:42;4.97;;;1.30;;
55455;SDS011;63021;52.836;6.376;2023-09-19T14:22:11;5.03;;;1.73;;
55455;SDS011;63021;52.836;6.376;2023-09-19T14:24:37;5.25;;;1.45;;
55455;SDS011;63021;52.836;6.376;2023-09-19T14:30:07;5.43;;;1.38;;
55455;SDS011;63021;52.836;6.376;2023-09-19T14:32:42;3.85;;;1.33;;
55455;SDS011;63021;52.836;6.376;2023-09-19T14:38:06;5.63;;;1.50;;
55455;SDS011;63021;52.836;6.376;2023-09-19T14:40:32;5.15;;;1.50;;
55455;SDS011;63021;52.836;6.376;2023-09-19T14:43:00;4.28;;;1.45;;
55455;SDS011;63021;52.836;6.376;2023-09-19T14:45:26;7.38;;;1.98;;
55455;SDS011;63021;52.836;6.376;2023-09-19T14:47:53;4.80;;;1.65;;
55455;SDS011;63021;52.836;6.376;2023-09-19T14:50:21;5.30;;;1.30;;
55455;SDS011;63021;52.836;6.376;2023-09-19T14:52:53;5.85;;;0.95;;
55455;SDS011;63021;52.836;6.376;2023-09-19T14:55:19;5.30;;;1.42;;
55455;SDS011;63021;52.836;6.376;2023-09-19T14:58:17;8.77;;;1.42;;
55455;SDS011;63021;52.836;6.376;2023-09-19T15:00:46;8.18;;;1.33;;
55455;SDS011;63021;52.836;6.376;2023-09-19T15:03:12;3.08;;;1.20;;
55455;SDS011;63021;52.836;6.376;2023-09-19T15:05:38;6.63;;;1.50;;
55455;SDS011;63021;52.836;6.376;2023-09-19T15:08:08;6.72;;;1.98;;
55455;SDS011;63021;52.836;6.376;2023-09-19T15:10:34;7.03;;;1.52;;
55455;SDS011;63021;52.836;6.376;2023-09-19T15:13:06;6.80;;;1.52;;
55455;SDS011;63021;52.836;6.376;2023-09-19T15:15:36;6.65;;;1.63;;
55455;SDS011;63021;52.836;6.376;2023-09-19T15:18:02;5.38;;;1.50;;
55455;SDS011;63021;52.836;6.376;2023-09-19T15:20:31;5.90;;;1.33;;
55455;SDS011;63021;52.836;6.376;2023-09-19T15:22:56;5.40;;;2.65;;
55455;SDS011;63021;52.836;6.376;2023-09-19T15:25:22;5.68;;;1.60;;
55455;SDS011;63021;52.836;6.376;2023-09-19T15:27:48;4.85;;;1.42;;
55455;SDS011;63021;52.836;6.376;2023-09-19T15:30:15;8.52;;;1.70;;
55455;SDS011;63021;52.836;6.376;2023-09-19T15:32:42;5.25;;;1.77;;
55455;SDS011;63021;52.836;6.376;2023-09-19T15:35:12;5.18;;;1.80;;
55455;SDS011;63021;52.836;6.376;2023-09-19T15:37:42;6.65;;;1.73;;
55455;SDS011;63021;52.836;6.376;2023-09-19T15:40:07;8.73;;;2.08;;
55455;SDS011;63021;52.836;6.376;2023-09-19T15:42:36;6.20;;;1.63;;
55455;SDS011;63021;52.836;6.376;2023-09-19T15:45:02;4.45;;;1.55;;
55455;SDS011;63021;52.836;6.376;2023-09-19T15:47:28;6.00;;;1.50;;
55455;SDS011;63021;52.836;6.376;2023-09-19T15:49:57;7.78;;;1.17;;
55455;SDS011;63021;52.836;6.376;2023-09-19T15:52:22;4.18;;;1.45;;
55455;SDS011;63021;52.836;6.376;2023-09-19T15:54:51;4.43;;;1.52;;
55455;SDS011;63021;52.836;6.376;2023-09-19T15:57:18;5.40;;;1.95;;
55455;SDS011;63021;52.836;6.376;2023-09-19T15:59:43;4.38;;;1.33;;
55455;SDS011;63021;52.836;6.376;2023-09-19T16:02:19;5.72;;;1.23;;
55455;SDS011;63021;52.836;6.376;2023-09-19T16:04:45;3.72;;;1.80;;
55455;SDS011;63021;52.836;6.376;2023-09-19T16:07:19;3.85;;;1.60;;